createdAt,value
2018-09-18T00:01:13.556Z,100.00
2018-09-18T00:03:42.350Z,100.00
2018-09-18T00:06:12.008Z,100.00
2018-09-18T00:08:40.709Z,100.00
2018-09-18T00:11:09.459Z,100.00
2018-09-18T00:13:38.230Z,100.00
2018-09-18T00:16:07.068Z,100.00
2018-09-18T00:18:35.784Z,100.00
2018-09-18T00:21:05.076Z,100.00
2018-09-18T00:23:33.790Z,100.00
2018-09-18T00:26:02.508Z,100.00
2018-09-18T00:28:31.216Z,100.00
2018-09-18T00:30:59.951Z,100.00
2018-09-18T00:33:28.664Z,100.00
2018-09-18T00:35:57.355Z,100.00
2018-09-18T00:38:26.034Z,100.00
2018-09-18T00:40:54.764Z,100.00
2018-09-18T00:43:23.446Z,100.00
2018-09-18T00:45:52.186Z,100.00
2018-09-18T00:48:20.889Z,100.00
2018-09-18T00:50:49.598Z,100.00
2018-09-18T00:53:18.281Z,100.00
2018-09-18T00:55:47.683Z,100.00
2018-09-18T00:58:16.396Z,100.00
2018-09-18T01:00:46.029Z,100.00
2018-09-18T01:03:14.711Z,100.00
2018-09-18T01:05:43.393Z,100.00
2018-09-18T01:08:12.069Z,100.00
2018-09-18T01:10:40.821Z,100.00
2018-09-18T01:13:09.498Z,100.00
2018-09-18T01:15:38.227Z,100.00
2018-09-18T01:18:06.999Z,100.00
2018-09-18T01:20:36.323Z,100.00
2018-09-18T01:23:05.016Z,100.00
2018-09-18T01:25:33.753Z,100.00
2018-09-18T01:28:02.437Z,100.00
2018-09-18T01:30:31.176Z,100.00
2018-09-18T01:32:59.880Z,100.00
2018-09-18T01:35:28.616Z,100.00
2018-09-18T01:37:57.457Z,100.00
2018-09-18T01:40:27.113Z,100.00
2018-09-18T01:42:55.805Z,100.00
2018-09-18T01:45:24.504Z,100.00
2018-09-18T01:47:53.176Z,100.00
2018-09-18T01:50:21.859Z,100.00
2018-09-18T01:52:50.562Z,100.00
2018-09-18T01:55:19.241Z,100.00
2018-09-18T01:57:47.933Z,100.00
2018-09-18T02:00:16.676Z,100.00
2018-09-18T02:02:45.414Z,100.00
2018-09-18T02:05:14.118Z,100.00
2018-09-18T02:07:42.842Z,100.00
2018-09-18T02:10:11.530Z,100.00
2018-09-18T02:12:40.242Z,100.00
2018-09-18T02:15:08.981Z,100.00
2018-09-18T02:17:37.685Z,100.00
2018-09-18T02:20:07.139Z,100.00
2018-09-18T02:22:35.870Z,100.00
2018-09-18T02:25:04.610Z,100.00
2018-09-18T02:27:33.328Z,100.00
2018-09-18T02:30:01.988Z,100.00
2018-09-18T02:32:30.731Z,100.00
2018-09-18T02:34:59.419Z,100.00
2018-09-18T02:37:28.116Z,100.00
2018-09-18T02:39:56.801Z,100.00
2018-09-18T02:42:25.535Z,100.00
2018-09-18T02:44:54.206Z,100.00
2018-09-18T02:47:22.915Z,100.00
2018-09-18T02:49:51.589Z,100.00
2018-09-18T02:52:20.451Z,100.00
2018-09-18T02:54:49.221Z,100.00
2018-09-18T02:57:17.958Z,100.00
2018-09-18T02:59:46.659Z,100.00
2018-09-18T03:02:15.362Z,100.00
2018-09-18T03:04:44.037Z,100.00
2018-09-18T03:07:12.751Z,100.00
2018-09-18T03:09:41.449Z,100.00
2018-09-18T03:12:10.146Z,100.00
2018-09-18T03:14:38.848Z,100.00
2018-09-18T03:17:07.549Z,100.00
2018-09-18T03:19:36.805Z,100.00
2018-09-18T03:22:05.516Z,100.00
2018-09-18T03:24:34.241Z,100.00
2018-09-18T03:27:02.922Z,100.00
2018-09-18T03:29:31.651Z,100.00
2018-09-18T03:32:00.486Z,100.00
2018-09-18T03:34:29.183Z,100.00
2018-09-18T03:36:57.895Z,100.00
2018-09-18T03:39:26.594Z,100.00
2018-09-18T03:41:55.340Z,100.00
2018-09-18T03:44:24.038Z,100.00
2018-09-18T03:46:52.764Z,100.00
2018-09-18T03:49:21.430Z,100.00
2018-09-18T03:51:50.179Z,100.00
2018-09-18T03:54:18.875Z,100.00
2018-09-18T03:56:47.598Z,100.00
2018-09-18T03:59:16.301Z,100.00
2018-09-18T04:01:45.001Z,100.00
2018-09-18T04:04:13.729Z,100.00
2018-09-18T04:06:42.440Z,100.00
2018-09-18T04:09:12.241Z,100.00
2018-09-18T04:11:41.353Z,100.00
2018-09-18T04:14:10.079Z,100.00
2018-09-18T04:16:38.795Z,100.00
2018-09-18T04:19:07.453Z,100.00
2018-09-18T04:21:39.704Z,100.00
2018-09-18T04:24:08.454Z,100.00
2018-09-18T04:26:38.045Z,100.00
2018-09-18T04:29:07.169Z,100.00
2018-09-18T04:31:36.008Z,100.00
2018-09-18T04:34:04.821Z,100.00
2018-09-18T04:36:33.567Z,100.00
2018-09-18T04:39:02.315Z,100.00
2018-09-18T04:41:31.021Z,100.00
2018-09-18T04:43:59.801Z,100.00
2018-09-18T04:46:28.489Z,100.00
2018-09-18T04:48:57.179Z,100.00
2018-09-18T04:51:25.872Z,100.00
2018-09-18T04:53:54.565Z,100.00
2018-09-18T04:56:23.251Z,100.00
2018-09-18T04:58:51.961Z,100.00
2018-09-18T05:01:20.677Z,100.00
2018-09-18T05:03:49.361Z,100.00
2018-09-18T05:06:18.120Z,100.00
2018-09-18T05:08:46.792Z,100.00
2018-09-18T05:11:15.498Z,100.00
2018-09-18T05:13:44.147Z,100.00
2018-09-18T05:16:12.850Z,100.00
2018-09-18T05:18:41.527Z,100.00
2018-09-18T05:21:10.321Z,100.00
2018-09-18T05:23:39.044Z,100.00
2018-09-18T05:26:07.851Z,100.00
2018-09-18T05:28:36.566Z,100.00
2018-09-18T05:31:05.337Z,100.00
2018-09-18T05:33:34.068Z,100.00
2018-09-18T05:36:02.801Z,100.00
2018-09-18T05:38:31.608Z,100.00
2018-09-18T05:41:00.306Z,100.00
2018-09-18T05:43:29.099Z,100.00
2018-09-18T05:45:57.808Z,100.00
2018-09-18T05:48:26.582Z,100.00
2018-09-18T05:50:55.284Z,100.00
2018-09-18T05:53:23.982Z,100.00
2018-09-18T05:55:52.664Z,100.00
2018-09-18T05:58:21.380Z,100.00
2018-09-18T06:00:50.126Z,100.00
2018-09-18T06:03:21.024Z,100.00
2018-09-18T06:05:49.779Z,100.00
2018-09-18T06:08:18.473Z,100.00
2018-09-18T06:10:47.196Z,100.00
2018-09-18T06:13:15.914Z,100.00
2018-09-18T06:15:44.647Z,100.00
2018-09-18T06:18:13.444Z,100.00
2018-09-18T06:20:42.410Z,100.00
2018-09-18T06:23:11.141Z,100.00
2018-09-18T06:25:39.842Z,100.00
2018-09-18T06:28:08.555Z,100.00
2018-09-18T06:30:37.504Z,100.00
2018-09-18T06:33:06.292Z,100.00
2018-09-18T06:35:35.024Z,100.00
2018-09-18T06:38:03.742Z,100.00
2018-09-18T06:40:32.496Z,100.00
2018-09-18T06:43:01.215Z,100.00
2018-09-18T06:45:29.984Z,100.00
2018-09-18T06:47:58.795Z,100.00
2018-09-18T06:50:27.412Z,100.00
2018-09-18T06:52:56.115Z,100.00
2018-09-18T06:55:24.802Z,100.00
2018-09-18T06:57:53.496Z,100.00
2018-09-18T07:00:22.210Z,100.00
2018-09-18T07:02:50.940Z,100.00
2018-09-18T07:05:19.629Z,100.00
2018-09-18T07:07:48.316Z,100.00
2018-09-18T07:10:17.002Z,100.00
2018-09-18T07:12:45.693Z,100.00
2018-09-18T07:15:14.389Z,100.00
2018-09-18T07:17:43.108Z,100.00
2018-09-18T07:20:11.940Z,100.00
2018-09-18T07:22:40.659Z,100.00
2018-09-18T07:25:09.419Z,98.91
2018-09-18T07:27:38.151Z,96.53
2018-09-18T07:30:07.829Z,96.09
2018-09-18T07:32:36.620Z,96.49
2018-09-18T07:35:05.540Z,97.34
2018-09-18T07:37:34.216Z,97.73
2018-09-18T07:40:03.082Z,96.66
2018-09-18T07:42:31.847Z,96.96
2018-09-18T07:45:00.544Z,97.21
2018-09-18T07:47:29.257Z,98.29
2018-09-18T07:49:57.988Z,98.37
2018-09-18T07:52:26.696Z,99.08
2018-09-18T07:54:55.386Z,99.13
2018-09-18T07:57:24.123Z,99.34
2018-09-18T07:59:52.829Z,98.89
2018-09-18T08:02:21.563Z,99.25
2018-09-18T08:04:50.235Z,99.41
2018-09-18T08:07:19.036Z,99.51
2018-09-18T08:09:47.746Z,99.59
2018-09-18T08:12:16.435Z,99.75
2018-09-18T08:14:45.169Z,99.90
2018-09-18T08:17:13.909Z,100.00
2018-09-18T08:19:42.806Z,100.00
2018-09-18T08:22:11.391Z,100.00
2018-09-18T08:24:40.092Z,99.88
2018-09-18T08:27:08.821Z,99.98
2018-09-18T08:29:37.614Z,99.67
2018-09-18T08:32:06.324Z,99.30
2018-09-18T08:34:35.020Z,99.17
2018-09-18T08:37:03.739Z,98.90
2018-09-18T08:39:32.528Z,98.08
2018-09-18T08:42:01.264Z,96.87
2018-09-18T08:44:29.968Z,96.64
2018-09-18T08:46:58.682Z,96.74
2018-09-18T08:49:27.389Z,96.89
2018-09-18T08:51:56.219Z,96.71
2018-09-18T08:54:24.875Z,96.50
2018-09-18T08:56:53.580Z,96.75
2018-09-18T08:59:22.301Z,96.69
2018-09-18T09:01:51.043Z,97.17
2018-09-18T09:04:19.802Z,96.70
2018-09-18T09:06:48.541Z,96.54
2018-09-18T09:09:17.279Z,97.32
2018-09-18T09:11:46.314Z,97.71
2018-09-18T09:14:15.238Z,97.79
2018-09-18T09:16:43.935Z,97.80
2018-09-18T09:19:12.660Z,97.34
2018-09-18T09:21:41.419Z,97.69
2018-09-18T09:24:10.115Z,97.27
2018-09-18T09:26:38.901Z,97.22
2018-09-18T09:29:07.558Z,96.82
2018-09-18T09:31:36.297Z,97.33
2018-09-18T09:34:05.025Z,97.25
2018-09-18T09:36:33.737Z,96.30
2018-09-18T09:39:02.510Z,96.26
2018-09-18T09:41:31.209Z,95.43
2018-09-18T09:43:59.910Z,95.12
2018-09-18T09:46:28.614Z,95.24
2018-09-18T09:48:57.313Z,95.73
2018-09-18T09:51:26.166Z,96.26
2018-09-18T09:53:54.823Z,96.63
2018-09-18T09:56:23.576Z,96.72
2018-09-18T09:58:52.273Z,97.27
2018-09-18T10:01:26.197Z,97.37
2018-09-18T10:03:55.417Z,97.42
2018-09-18T10:06:24.126Z,97.90
2018-09-18T10:08:52.832Z,97.71
2018-09-18T10:11:21.600Z,97.34
2018-09-18T10:13:50.305Z,97.41
2018-09-18T10:16:18.971Z,97.21
2018-09-18T10:18:47.698Z,97.20
2018-09-18T10:21:16.416Z,97.14
2018-09-18T10:23:45.134Z,97.38
2018-09-18T10:26:13.934Z,97.40
2018-09-18T10:28:42.567Z,97.68
2018-09-18T10:31:11.266Z,97.90
2018-09-18T10:33:39.996Z,97.24
2018-09-18T10:36:08.719Z,97.21
2018-09-18T10:38:37.492Z,96.71
2018-09-18T10:41:06.304Z,96.88
2018-09-18T10:43:34.974Z,97.01
2018-09-18T10:46:03.717Z,97.06
2018-09-18T10:48:36.655Z,97.23
2018-09-18T10:51:05.373Z,97.70
2018-09-18T10:53:34.079Z,97.60
2018-09-18T10:56:02.763Z,97.88
2018-09-18T10:58:31.465Z,97.98
2018-09-18T11:01:00.210Z,98.37
2018-09-18T11:03:28.914Z,98.75
2018-09-18T11:05:57.719Z,98.81
2018-09-18T11:08:26.440Z,99.00
2018-09-18T11:10:55.070Z,99.14
2018-09-18T11:13:23.839Z,98.80
2018-09-18T11:15:52.584Z,98.60
2018-09-18T11:18:21.284Z,98.47
2018-09-18T11:20:50.025Z,98.53
2018-09-18T11:23:18.810Z,98.26
2018-09-18T11:25:47.609Z,98.35
2018-09-18T11:28:16.369Z,98.24
2018-09-18T11:30:45.032Z,98.39
2018-09-18T11:33:13.736Z,98.68
2018-09-18T11:35:42.450Z,98.61
2018-09-18T11:38:11.138Z,98.71
2018-09-18T11:40:39.833Z,98.70
2018-09-18T11:43:08.550Z,99.01
2018-09-18T11:45:37.275Z,99.29
2018-09-18T11:48:05.995Z,99.69
2018-09-18T11:50:34.716Z,99.72
2018-09-18T11:53:03.449Z,100.00
2018-09-18T11:55:32.256Z,100.00
2018-09-18T11:58:00.991Z,100.00
2018-09-18T12:00:29.926Z,100.00
2018-09-18T12:02:58.637Z,100.00
2018-09-18T12:05:27.350Z,100.00
2018-09-18T12:07:56.088Z,100.00
2018-09-18T12:10:24.824Z,100.00
2018-09-18T12:12:53.602Z,100.00
2018-09-18T12:15:22.287Z,100.00
2018-09-18T12:17:50.985Z,100.00
2018-09-18T12:20:19.726Z,100.00
2018-09-18T12:22:48.437Z,100.00
2018-09-18T12:25:17.139Z,100.00
2018-09-18T12:27:45.954Z,100.00
2018-09-18T12:30:14.610Z,100.00
2018-09-18T12:32:43.377Z,100.00
2018-09-18T12:35:12.118Z,100.00
2018-09-18T12:37:40.845Z,100.00
2018-09-18T12:40:09.559Z,100.00
2018-09-18T12:42:38.543Z,100.00
2018-09-18T12:45:07.237Z,100.00
2018-09-18T12:47:35.959Z,100.00
2018-09-18T12:50:05.256Z,100.00
2018-09-18T12:52:33.735Z,100.00
2018-09-18T12:55:02.498Z,100.00
2018-09-18T12:57:31.339Z,99.06
2018-09-18T13:00:00.010Z,99.44
2018-09-18T13:02:28.704Z,99.21
2018-09-18T13:04:57.440Z,98.81
2018-09-18T13:07:26.144Z,98.50
2018-09-18T13:09:54.838Z,97.96
2018-09-18T13:12:23.572Z,97.51
2018-09-18T13:14:52.313Z,96.88
2018-09-18T13:17:21.070Z,96.85
2018-09-18T13:19:49.820Z,95.70
2018-09-18T13:22:18.597Z,94.76
2018-09-18T13:24:47.536Z,94.03
2018-09-18T13:27:16.224Z,92.58
2018-09-18T13:29:44.920Z,90.39
2018-09-18T13:32:13.598Z,90.87
2018-09-18T13:34:42.287Z,89.81
2018-09-18T13:37:10.981Z,90.88
2018-09-18T13:39:39.693Z,90.23
2018-09-18T13:42:08.381Z,88.85
2018-09-18T13:44:37.068Z,88.58
2018-09-18T13:47:05.848Z,88.92
2018-09-18T13:49:34.574Z,88.29
2018-09-18T13:52:03.518Z,88.83
2018-09-18T13:54:32.237Z,89.54
2018-09-18T13:57:00.969Z,89.65
2018-09-18T13:59:29.711Z,89.18
2018-09-18T14:01:58.441Z,87.96
2018-09-18T14:04:27.186Z,87.39
2018-09-18T14:06:55.859Z,83.90
2018-09-18T14:09:24.589Z,83.23
2018-09-18T14:11:53.293Z,82.71
2018-09-18T14:14:22.117Z,80.22
2018-09-18T14:16:50.780Z,79.00
2018-09-18T14:19:19.477Z,78.39
2018-09-18T14:21:48.242Z,77.28
2018-09-18T14:24:16.932Z,77.34
2018-09-18T14:26:45.717Z,76.39
2018-09-18T14:29:14.326Z,76.39
2018-09-18T14:31:43.054Z,75.62
2018-09-18T14:34:12.000Z,75.20
2018-09-18T14:36:40.670Z,74.28
2018-09-18T14:39:10.568Z,74.22
2018-09-18T14:41:39.831Z,74.68
2018-09-18T14:44:08.629Z,74.04
2018-09-18T14:46:37.412Z,73.60
2018-09-18T14:49:06.521Z,73.05
2018-09-18T14:51:35.260Z,73.52
2018-09-18T14:54:03.969Z,73.91
2018-09-18T14:56:32.716Z,74.21
2018-09-18T14:59:01.493Z,73.31
2018-09-18T15:01:30.188Z,73.75
2018-09-18T15:03:58.900Z,72.46
2018-09-18T15:06:27.602Z,72.72
2018-09-18T15:08:56.252Z,72.94
2018-09-18T15:11:24.915Z,72.82
2018-09-18T15:13:53.582Z,72.56
2018-09-18T15:16:22.372Z,73.59
2018-09-18T15:18:51.062Z,73.53
2018-09-18T15:21:19.762Z,73.56
2018-09-18T15:23:48.448Z,73.58
2018-09-18T15:26:17.154Z,72.63
2018-09-18T15:28:45.873Z,73.39
2018-09-18T15:31:14.548Z,72.80
2018-09-18T15:33:43.408Z,72.32
2018-09-18T15:36:12.020Z,72.49
2018-09-18T15:38:40.786Z,72.49
2018-09-18T15:41:09.633Z,72.95
2018-09-18T15:43:38.515Z,73.09
2018-09-18T15:46:07.391Z,72.38
2018-09-18T15:48:36.137Z,72.75
2018-09-18T15:51:04.952Z,72.46
2018-09-18T15:53:33.697Z,72.57
2018-09-18T15:56:02.532Z,73.31
2018-09-18T15:58:31.256Z,73.88
2018-09-18T16:01:00.042Z,73.57
2018-09-18T16:03:28.783Z,73.73
2018-09-18T16:05:57.608Z,74.51
2018-09-18T16:08:26.386Z,75.31
2018-09-18T16:10:55.163Z,76.99
2018-09-18T16:13:23.897Z,76.68
2018-09-18T16:15:52.733Z,76.22
2018-09-18T16:18:21.502Z,76.15
2018-09-18T16:20:50.245Z,75.52
2018-09-18T16:23:19.094Z,74.25
2018-09-18T16:25:47.851Z,73.98
2018-09-18T16:28:16.618Z,73.65
2018-09-18T16:30:45.447Z,74.47
2018-09-18T16:33:14.279Z,74.69
2018-09-18T16:35:42.984Z,75.45
2018-09-18T16:38:11.791Z,75.99
2018-09-18T16:40:40.557Z,77.25
2018-09-18T16:43:09.391Z,77.62
2018-09-18T16:45:38.252Z,77.89
2018-09-18T16:48:07.089Z,79.08
2018-09-18T16:50:35.811Z,80.03
2018-09-18T16:53:04.543Z,80.93
2018-09-18T16:55:33.509Z,81.23
2018-09-18T16:58:02.261Z,81.33
2018-09-18T17:00:31.366Z,81.75
2018-09-18T17:03:00.083Z,82.01
2018-09-18T17:05:29.023Z,82.77
2018-09-18T17:07:57.788Z,82.98
2018-09-18T17:10:26.612Z,83.32
2018-09-18T17:12:55.548Z,83.73
2018-09-18T17:15:24.277Z,84.22
2018-09-18T17:17:53.338Z,84.70
2018-09-18T17:20:22.043Z,85.13
2018-09-18T17:22:50.998Z,85.02
2018-09-18T17:25:19.759Z,85.58
2018-09-18T17:27:48.721Z,85.59
2018-09-18T17:30:17.479Z,86.58
2018-09-18T17:32:46.209Z,87.22
2018-09-18T17:35:15.151Z,87.65
2018-09-18T17:37:43.960Z,87.58
2018-09-18T17:40:12.640Z,88.56
2018-09-18T17:42:41.434Z,88.95
2018-09-18T17:45:10.297Z,88.66
2018-09-18T17:47:39.141Z,89.75
2018-09-18T17:50:07.926Z,89.84
2018-09-18T17:52:36.645Z,90.33
2018-09-18T17:55:05.461Z,90.44
2018-09-18T17:57:34.198Z,90.59
2018-09-18T18:00:02.941Z,90.73
2018-09-18T18:02:32.021Z,91.00
2018-09-18T18:05:00.824Z,91.42
2018-09-18T18:07:29.604Z,91.22
2018-09-18T18:09:58.388Z,91.78
2018-09-18T18:12:27.109Z,91.89
2018-09-18T18:14:55.962Z,92.24
2018-09-18T18:17:24.929Z,92.47
2018-09-18T18:19:53.709Z,91.99
2018-09-18T18:22:22.465Z,91.70
2018-09-18T18:24:51.260Z,91.52
2018-09-18T18:27:20.035Z,91.52
2018-09-18T18:29:48.922Z,91.45
2018-09-18T18:32:17.822Z,91.44
2018-09-18T18:34:46.555Z,91.56
2018-09-18T18:37:15.253Z,92.02
2018-09-18T18:39:43.980Z,91.92
2018-09-18T18:42:12.774Z,91.49
2018-09-18T18:44:41.482Z,91.55
2018-09-18T18:47:10.179Z,91.42
2018-09-18T18:49:39.617Z,91.79
2018-09-18T18:52:08.405Z,91.90
2018-09-18T18:54:37.203Z,92.13
2018-09-18T18:57:06.312Z,92.41
2018-09-18T18:59:35.062Z,92.60
2018-09-18T19:02:03.838Z,92.65
2018-09-18T19:04:32.531Z,92.91
2018-09-18T19:07:01.348Z,93.29
2018-09-18T19:09:30.085Z,93.70
2018-09-18T19:11:58.776Z,93.69
2018-09-18T19:14:27.539Z,93.93
2018-09-18T19:16:56.242Z,93.89
2018-09-18T19:19:24.964Z,94.10
2018-09-18T19:21:53.659Z,94.45
2018-09-18T19:24:22.417Z,94.28
2018-09-18T19:26:51.142Z,94.71
2018-09-18T19:29:19.820Z,94.52
2018-09-18T19:31:48.560Z,94.63
2018-09-18T19:34:17.275Z,94.83
2018-09-18T19:36:46.044Z,94.99
2018-09-18T19:39:14.834Z,95.24
2018-09-18T19:41:43.512Z,95.38
2018-09-18T19:44:12.203Z,95.43
2018-09-18T19:46:40.974Z,95.53
2018-09-18T19:49:09.691Z,95.76
2018-09-18T19:51:38.372Z,95.79
2018-09-18T19:54:07.062Z,95.86
2018-09-18T19:56:35.749Z,95.99
2018-09-18T19:59:04.482Z,95.98
2018-09-18T20:01:33.255Z,95.92
2018-09-18T20:04:01.942Z,96.21
2018-09-18T20:06:30.745Z,95.93
2018-09-18T20:08:59.439Z,96.14
2018-09-18T20:11:28.169Z,96.03
2018-09-18T20:13:57.219Z,95.97
2018-09-18T20:16:26.018Z,96.11
2018-09-18T20:18:54.725Z,96.24
2018-09-18T20:21:23.433Z,96.21
2018-09-18T20:23:52.404Z,96.01
2018-09-18T20:26:21.319Z,96.18
2018-09-18T20:28:50.052Z,96.02
2018-09-18T20:31:18.747Z,96.32
2018-09-18T20:33:47.748Z,96.23
2018-09-18T20:36:17.068Z,95.95
2018-09-18T20:38:45.777Z,96.37
2018-09-18T20:41:14.494Z,96.29
2018-09-18T20:43:43.222Z,96.41
2018-09-18T20:46:11.924Z,96.29
2018-09-18T20:48:40.639Z,96.53
2018-09-18T20:51:09.331Z,96.78
2018-09-18T20:53:38.057Z,96.59
2018-09-18T20:56:06.781Z,96.84
2018-09-18T20:58:35.522Z,96.91
2018-09-18T21:01:04.284Z,96.84
2018-09-18T21:03:33.079Z,97.25
2018-09-18T21:06:01.733Z,97.40
2018-09-18T21:08:30.446Z,97.92
2018-09-18T21:10:59.142Z,98.49
2018-09-18T21:13:27.848Z,98.54
2018-09-18T21:15:56.589Z,98.81
2018-09-18T21:18:25.308Z,98.93
2018-09-18T21:20:54.070Z,99.19
2018-09-18T21:23:22.720Z,99.33
2018-09-18T21:25:58.773Z,99.61
2018-09-18T21:28:27.530Z,100.00
2018-09-18T21:30:56.252Z,100.00
2018-09-18T21:33:24.952Z,100.00
2018-09-18T21:35:53.675Z,100.00
2018-09-18T21:38:22.406Z,100.00
2018-09-18T21:40:51.100Z,100.00
2018-09-18T21:43:19.826Z,100.00
2018-09-18T21:45:48.905Z,100.00
2018-09-18T21:48:17.610Z,100.00
2018-09-18T21:50:46.393Z,100.00
2018-09-18T21:53:15.724Z,100.00
2018-09-18T21:55:45.308Z,100.00
2018-09-18T21:58:14.084Z,100.00
2018-09-18T22:00:43.135Z,100.00
2018-09-18T22:03:11.967Z,100.00
2018-09-18T22:05:40.662Z,100.00
2018-09-18T22:08:09.371Z,100.00
2018-09-18T22:10:38.068Z,100.00
2018-09-18T22:13:06.807Z,100.00
2018-09-18T22:15:35.496Z,100.00
2018-09-18T22:18:04.181Z,100.00
2018-09-18T22:20:32.980Z,100.00
2018-09-18T22:23:01.675Z,100.00
2018-09-18T22:25:30.356Z,100.00
2018-09-18T22:27:59.109Z,100.00
2018-09-18T22:30:27.814Z,100.00
2018-09-18T22:32:56.528Z,100.00
2018-09-18T22:35:25.220Z,100.00
2018-09-18T22:37:53.889Z,100.00
2018-09-18T22:40:22.577Z,100.00
2018-09-18T22:42:51.317Z,100.00
2018-09-18T22:45:19.980Z,100.00
2018-09-18T22:47:48.640Z,100.00
2018-09-18T22:52:51.286Z,100.00
2018-09-18T22:55:19.983Z,100.00
2018-09-18T22:57:48.688Z,100.00
2018-09-18T23:00:17.397Z,100.00
2018-09-18T23:02:46.082Z,100.00
2018-09-18T23:05:14.767Z,100.00
2018-09-18T23:07:43.448Z,100.00
2018-09-18T23:10:12.155Z,100.00
2018-09-18T23:12:40.829Z,100.00
2018-09-18T23:15:09.544Z,100.00
2018-09-18T23:17:38.220Z,100.00
2018-09-18T23:20:06.905Z,100.00
2018-09-18T23:22:35.578Z,100.00
2018-09-18T23:25:04.321Z,100.00
2018-09-18T23:27:33.058Z,100.00
2018-09-18T23:30:01.748Z,100.00
2018-09-18T23:32:30.419Z,100.00
2018-09-18T23:34:59.163Z,100.00
2018-09-18T23:37:27.865Z,100.00
2018-09-18T23:39:56.545Z,100.00
2018-09-18T23:42:25.207Z,100.00
2018-09-18T23:44:53.870Z,100.00
2018-09-18T23:47:22.530Z,100.00
2018-09-18T23:49:51.248Z,100.00
2018-09-18T23:52:19.888Z,100.00
2018-09-18T23:54:48.536Z,100.00
2018-09-18T23:57:17.226Z,100.00
2018-09-18T23:59:45.912Z,100.00
